sensor_id;sensor_type;location;lat;lon;timestamp;temperature;humidity
62809;DHT22;48848;39.002;-94.584;2022-12-07T00:01:28;19.70;39.70
62809;DHT22;48848;39.002;-94.584;2022-12-07T00:03:56;19.80;39.70
62809;DHT22;48848;39.002;-94.584;2022-12-07T00:06:38;20.00;39.50
62809;DHT22;48848;39.002;-94.584;2022-12-07T00:09:07;20.30;41.20
62809;DHT22;48848;39.002;-94.584;2022-12-07T00:11:35;20.40;39.30
62809;DHT22;48848;39.002;-94.584;2022-12-07T00:14:04;20.40;39.30
62809;DHT22;48848;39.002;-94.584;2022-12-07T00:16:32;20.30;39.30
62809;DHT22;48848;39.002;-94.584;2022-12-07T00:18:59;20.10;39.70
62809;DHT22;48848;39.002;-94.584;2022-12-07T00:21:28;20.00;40.00
62809;DHT22;48848;39.002;-94.584;2022-12-07T00:23:55;19.80;40.10
62809;DHT22;48848;39.002;-94.584;2022-12-07T00:26:23;19.60;40.40
62809;DHT22;48848;39.002;-94.584;2022-12-07T00:28:52;19.70;40.70
62809;DHT22;48848;39.002;-94.584;2022-12-07T00:31:20;19.90;40.40
62809;DHT22;48848;39.002;-94.584;2022-12-07T00:33:47;20.10;40.10
62809;DHT22;48848;39.002;-94.584;2022-12-07T00:36:16;20.30;39.60
62809;DHT22;48848;39.002;-94.584;2022-12-07T00:38:42;20.50;39.30
62809;DHT22;48848;39.002;-94.584;2022-12-07T00:41:23;20.30;39.40
62809;DHT22;48848;39.002;-94.584;2022-12-07T00:43:50;20.10;39.70
62809;DHT22;48848;39.002;-94.584;2022-12-07T00:46:17;19.90;39.90
62809;DHT22;48848;39.002;-94.584;2022-12-07T00:48:44;19.80;40.30
62809;DHT22;48848;39.002;-94.584;2022-12-07T00:51:15;19.60;40.70
62809;DHT22;48848;39.002;-94.584;2022-12-07T00:53:42;19.50;41.00
62809;DHT22;48848;39.002;-94.584;2022-12-07T00:56:20;19.60;41.20
62809;DHT22;48848;39.002;-94.584;2022-12-07T00:58:56;19.80;40.90
62809;DHT22;48848;39.002;-94.584;2022-12-07T01:01:23;20.40;42.30
62809;DHT22;48848;39.002;-94.584;2022-12-07T01:03:50;20.50;39.80
62809;DHT22;48848;39.002;-94.584;2022-12-07T01:06:18;20.50;39.80
62809;DHT22;48848;39.002;-94.584;2022-12-07T01:08:44;20.30;39.80
62809;DHT22;48848;39.002;-94.584;2022-12-07T01:11:14;20.20;40.20
62809;DHT22;48848;39.002;-94.584;2022-12-07T01:13:41;20.00;40.40
62809;DHT22;48848;39.002;-94.584;2022-12-07T01:16:09;19.90;40.70
62809;DHT22;48848;39.002;-94.584;2022-12-07T01:18:36;19.80;41.00
62809;DHT22;48848;39.002;-94.584;2022-12-07T01:21:06;19.60;41.30
62809;DHT22;48848;39.002;-94.584;2022-12-07T01:23:34;19.60;41.50
62809;DHT22;48848;39.002;-94.584;2022-12-07T01:26:03;19.70;41.80
62809;DHT22;48848;39.002;-94.584;2022-12-07T01:28:29;19.90;41.60
62809;DHT22;48848;39.002;-94.584;2022-12-07T01:31:01;20.10;40.90
62809;DHT22;48848;39.002;-94.584;2022-12-07T01:33:29;20.40;40.50
62809;DHT22;48848;39.002;-94.584;2022-12-07T01:36:07;20.40;40.10
62809;DHT22;48848;39.002;-94.584;2022-12-07T01:38:34;20.20;40.20
62809;DHT22;48848;39.002;-94.584;2022-12-07T01:41:01;20.30;40.40
62809;DHT22;48848;39.002;-94.584;2022-12-07T01:43:30;20.40;40.70
62809;DHT22;48848;39.002;-94.584;2022-12-07T01:45:57;20.40;40.60
62809;DHT22;48848;39.002;-94.584;2022-12-07T01:48:49;20.40;40.80
62809;DHT22;48848;39.002;-94.584;2022-12-07T01:51:15;20.50;40.80
62809;DHT22;48848;39.002;-94.584;2022-12-07T01:53:44;20.50;40.90
62809;DHT22;48848;39.002;-94.584;2022-12-07T01:56:14;20.60;40.90
62809;DHT22;48848;39.002;-94.584;2022-12-07T01:58:43;20.60;41.00
62809;DHT22;48848;39.002;-94.584;2022-12-07T02:01:10;20.60;41.00
62809;DHT22;48848;39.002;-94.584;2022-12-07T02:03:42;20.70;41.10
62809;DHT22;48848;39.002;-94.584;2022-12-07T02:06:11;21.00;40.70
62809;DHT22;48848;39.002;-94.584;2022-12-07T02:08:38;21.30;40.20
62809;DHT22;48848;39.002;-94.584;2022-12-07T02:11:06;21.50;40.50
62809;DHT22;48848;39.002;-94.584;2022-12-07T02:13:35;21.40;39.80
62809;DHT22;48848;39.002;-94.584;2022-12-07T02:30:12;21.00;40.60
62809;DHT22;48848;39.002;-94.584;2022-12-07T02:33:08;21.00;40.70
62809;DHT22;48848;39.002;-94.584;2022-12-07T02:35:40;20.90;40.90
62809;DHT22;48848;39.002;-94.584;2022-12-07T02:38:28;20.90;40.90
62809;DHT22;48848;39.002;-94.584;2022-12-07T02:41:02;21.00;40.80
62809;DHT22;48848;39.002;-94.584;2022-12-07T02:43:53;21.20;40.20
62809;DHT22;48848;39.002;-94.584;2022-12-07T02:46:27;21.50;39.80
62809;DHT22;48848;39.002;-94.584;2022-12-07T02:48:55;21.60;39.00
62809;DHT22;48848;39.002;-94.584;2022-12-07T02:51:22;21.50;38.50
62809;DHT22;48848;39.002;-94.584;2022-12-07T02:53:48;21.40;39.00
62809;DHT22;48848;39.002;-94.584;2022-12-07T03:04:42;21.20;40.30
62809;DHT22;48848;39.002;-94.584;2022-12-07T03:07:22;21.20;40.30
62809;DHT22;48848;39.002;-94.584;2022-12-07T03:10:03;21.00;40.30
62809;DHT22;48848;39.002;-94.584;2022-12-07T03:12:44;21.00;40.50
62809;DHT22;48848;39.002;-94.584;2022-12-07T03:15:18;21.00;40.60
62809;DHT22;48848;39.002;-94.584;2022-12-07T03:17:48;21.00;40.70
62809;DHT22;48848;39.002;-94.584;2022-12-07T03:20:17;20.90;40.70
62809;DHT22;48848;39.002;-94.584;2022-12-07T03:22:45;20.90;40.70
62809;DHT22;48848;39.002;-94.584;2022-12-07T03:25:15;21.00;40.70
62809;DHT22;48848;39.002;-94.584;2022-12-07T03:28:02;21.30;40.20
62809;DHT22;48848;39.002;-94.584;2022-12-07T03:30:44;21.50;39.80
62809;DHT22;48848;39.002;-94.584;2022-12-07T03:33:22;21.60;38.90
62809;DHT22;48848;39.002;-94.584;2022-12-07T03:36:11;21.50;38.90
62809;DHT22;48848;39.002;-94.584;2022-12-07T03:39:06;21.30;39.00
62809;DHT22;48848;39.002;-94.584;2022-12-07T03:41:36;21.30;39.30
62809;DHT22;48848;39.002;-94.584;2022-12-07T03:44:04;21.20;39.40
62809;DHT22;48848;39.002;-94.584;2022-12-07T03:56:54;20.60;39.70
62809;DHT22;48848;39.002;-94.584;2022-12-07T03:59:22;20.60;40.00
62809;DHT22;48848;39.002;-94.584;2022-12-07T04:01:54;20.50;40.00
62809;DHT22;48848;39.002;-94.584;2022-12-07T04:04:22;20.50;40.00
62809;DHT22;48848;39.002;-94.584;2022-12-07T04:06:49;20.50;40.00
62809;DHT22;48848;39.002;-94.584;2022-12-07T04:09:15;20.40;39.80
62809;DHT22;48848;39.002;-94.584;2022-12-07T04:11:42;20.30;39.90
62809;DHT22;48848;39.002;-94.584;2022-12-07T04:14:09;20.30;40.10
62809;DHT22;48848;39.002;-94.584;2022-12-07T04:19:11;20.10;40.20
62809;DHT22;48848;39.002;-94.584;2022-12-07T04:21:37;20.10;40.50
62809;DHT22;48848;39.002;-94.584;2022-12-07T04:24:04;20.00;40.50
62809;DHT22;48848;39.002;-94.584;2022-12-07T04:26:30;19.90;40.60
62809;DHT22;48848;39.002;-94.584;2022-12-07T04:28:56;19.80;40.70
62809;DHT22;48848;39.002;-94.584;2022-12-07T04:31:22;19.80;40.90
62809;DHT22;48848;39.002;-94.584;2022-12-07T04:33:48;19.60;41.00
62809;DHT22;48848;39.002;-94.584;2022-12-07T04:36:15;19.50;41.20
62809;DHT22;48848;39.002;-94.584;2022-12-07T04:38:41;19.40;41.30
62809;DHT22;48848;39.002;-94.584;2022-12-07T04:41:08;19.30;41.50
62809;DHT22;48848;39.002;-94.584;2022-12-07T04:43:35;19.30;41.60
62809;DHT22;48848;39.002;-94.584;2022-12-07T04:46:01;19.20;41.70
62809;DHT22;48848;39.002;-94.584;2022-12-07T04:48:27;19.20;41.70
62809;DHT22;48848;39.002;-94.584;2022-12-07T04:50:54;19.10;41.80
62809;DHT22;48848;39.002;-94.584;2022-12-07T04:53:20;19.10;41.90
62809;DHT22;48848;39.002;-94.584;2022-12-07T04:55:46;19.00;42.00
62809;DHT22;48848;39.002;-94.584;2022-12-07T04:58:13;19.00;42.10
62809;DHT22;48848;39.002;-94.584;2022-12-07T05:00:39;19.00;42.00
62809;DHT22;48848;39.002;-94.584;2022-12-07T05:03:06;19.00;42.00
62809;DHT22;48848;39.002;-94.584;2022-12-07T05:05:32;18.90;41.90
62809;DHT22;48848;39.002;-94.584;2022-12-07T05:07:58;18.90;41.90
62809;DHT22;48848;39.002;-94.584;2022-12-07T05:10:24;18.90;41.80
62809;DHT22;48848;39.002;-94.584;2022-12-07T05:12:50;18.80;41.80
62809;DHT22;48848;39.002;-94.584;2022-12-07T05:15:16;18.80;42.00
62809;DHT22;48848;39.002;-94.584;2022-12-07T05:17:43;18.80;42.00
62809;DHT22;48848;39.002;-94.584;2022-12-07T05:20:10;18.70;42.00
62809;DHT22;48848;39.002;-94.584;2022-12-07T05:22:36;18.70;42.20
62809;DHT22;48848;39.002;-94.584;2022-12-07T05:25:02;18.70;42.20
62809;DHT22;48848;39.002;-94.584;2022-12-07T05:27:29;18.70;42.20
62809;DHT22;48848;39.002;-94.584;2022-12-07T05:29:55;18.60;42.20
62809;DHT22;48848;39.002;-94.584;2022-12-07T05:32:21;18.60;42.10
62809;DHT22;48848;39.002;-94.584;2022-12-07T05:34:47;18.60;42.20
62809;DHT22;48848;39.002;-94.584;2022-12-07T05:37:13;18.60;42.10
62809;DHT22;48848;39.002;-94.584;2022-12-07T05:39:39;18.60;42.10
62809;DHT22;48848;39.002;-94.584;2022-12-07T05:42:10;18.50;42.20
62809;DHT22;48848;39.002;-94.584;2022-12-07T05:44:44;18.50;42.20
62809;DHT22;48848;39.002;-94.584;2022-12-07T05:47:11;18.50;42.30
62809;DHT22;48848;39.002;-94.584;2022-12-07T05:49:37;18.40;42.30
62809;DHT22;48848;39.002;-94.584;2022-12-07T05:52:04;18.40;42.40
62809;DHT22;48848;39.002;-94.584;2022-12-07T05:54:31;18.40;42.40
62809;DHT22;48848;39.002;-94.584;2022-12-07T05:56:57;18.30;42.40
62809;DHT22;48848;39.002;-94.584;2022-12-07T05:59:23;18.30;42.40
62809;DHT22;48848;39.002;-94.584;2022-12-07T06:01:52;18.30;42.40
62809;DHT22;48848;39.002;-94.584;2022-12-07T06:04:19;18.30;42.30
62809;DHT22;48848;39.002;-94.584;2022-12-07T06:06:45;18.30;42.30
62809;DHT22;48848;39.002;-94.584;2022-12-07T06:09:12;18.30;42.30
62809;DHT22;48848;39.002;-94.584;2022-12-07T06:11:41;18.20;42.30
62809;DHT22;48848;39.002;-94.584;2022-12-07T06:14:25;18.20;43.40
62809;DHT22;48848;39.002;-94.584;2022-12-07T06:16:52;18.20;42.40
62809;DHT22;48848;39.002;-94.584;2022-12-07T06:19:18;18.10;42.50
62809;DHT22;48848;39.002;-94.584;2022-12-07T06:21:44;18.10;42.70
62809;DHT22;48848;39.002;-94.584;2022-12-07T06:24:12;18.10;42.40
62809;DHT22;48848;39.002;-94.584;2022-12-07T06:26:39;18.10;42.40
62809;DHT22;48848;39.002;-94.584;2022-12-07T06:29:05;18.10;42.20
62809;DHT22;48848;39.002;-94.584;2022-12-07T06:31:31;18.00;42.00
62809;DHT22;48848;39.002;-94.584;2022-12-07T06:34:03;18.10;42.00
62809;DHT22;48848;39.002;-94.584;2022-12-07T06:36:29;18.00;41.80
62809;DHT22;48848;39.002;-94.584;2022-12-07T06:38:56;18.00;41.70
62809;DHT22;48848;39.002;-94.584;2022-12-07T06:41:22;18.00;41.70
62809;DHT22;48848;39.002;-94.584;2022-12-07T06:43:49;18.00;41.60
62809;DHT22;48848;39.002;-94.584;2022-12-07T06:46:16;17.90;41.50
62809;DHT22;48848;39.002;-94.584;2022-12-07T06:48:43;17.90;41.40
62809;DHT22;48848;39.002;-94.584;2022-12-07T06:51:10;17.90;41.40
62809;DHT22;48848;39.002;-94.584;2022-12-07T06:53:36;17.90;41.30
62809;DHT22;48848;39.002;-94.584;2022-12-07T06:56:03;17.80;41.20
62809;DHT22;48848;39.002;-94.584;2022-12-07T06:58:30;17.80;41.10
62809;DHT22;48848;39.002;-94.584;2022-12-07T07:00:56;17.80;41.10
62809;DHT22;48848;39.002;-94.584;2022-12-07T07:03:22;17.80;41.00
62809;DHT22;48848;39.002;-94.584;2022-12-07T07:05:49;17.80;41.00
62809;DHT22;48848;39.002;-94.584;2022-12-07T07:08:15;17.80;40.90
62809;DHT22;48848;39.002;-94.584;2022-12-07T07:10:41;17.70;40.90
62809;DHT22;48848;39.002;-94.584;2022-12-07T07:13:08;17.70;40.90
62809;DHT22;48848;39.002;-94.584;2022-12-07T07:15:34;17.70;40.90
62809;DHT22;48848;39.002;-94.584;2022-12-07T07:18:00;17.70;40.80
62809;DHT22;48848;39.002;-94.584;2022-12-07T07:20:27;17.60;40.70
62809;DHT22;48848;39.002;-94.584;2022-12-07T07:22:56;17.60;40.70
62809;DHT22;48848;39.002;-94.584;2022-12-07T07:25:22;17.60;40.70
62809;DHT22;48848;39.002;-94.584;2022-12-07T07:27:49;17.50;41.70
62809;DHT22;48848;39.002;-94.584;2022-12-07T07:30:15;17.50;40.70
62809;DHT22;48848;39.002;-94.584;2022-12-07T07:32:41;17.50;40.60
62809;DHT22;48848;39.002;-94.584;2022-12-07T07:35:07;17.50;40.60
62809;DHT22;48848;39.002;-94.584;2022-12-07T07:37:34;17.50;40.70
62809;DHT22;48848;39.002;-94.584;2022-12-07T07:40:00;17.50;40.60
62809;DHT22;48848;39.002;-94.584;2022-12-07T07:42:26;17.50;40.60
62809;DHT22;48848;39.002;-94.584;2022-12-07T07:44:52;17.40;40.60
62809;DHT22;48848;39.002;-94.584;2022-12-07T07:47:19;17.40;40.60
62809;DHT22;48848;39.002;-94.584;2022-12-07T07:49:45;17.40;40.40
62809;DHT22;48848;39.002;-94.584;2022-12-07T07:52:11;17.40;40.40
62809;DHT22;48848;39.002;-94.584;2022-12-07T07:54:37;17.40;40.40
62809;DHT22;48848;39.002;-94.584;2022-12-07T07:57:04;17.30;40.40
62809;DHT22;48848;39.002;-94.584;2022-12-07T07:59:30;17.30;40.20
62809;DHT22;48848;39.002;-94.584;2022-12-07T08:01:56;17.30;40.40
62809;DHT22;48848;39.002;-94.584;2022-12-07T08:04:22;17.30;40.30
62809;DHT22;48848;39.002;-94.584;2022-12-07T08:06:49;17.30;40.40
62809;DHT22;48848;39.002;-94.584;2022-12-07T08:09:15;17.30;40.40
62809;DHT22;48848;39.002;-94.584;2022-12-07T08:11:41;17.20;40.30
62809;DHT22;48848;39.002;-94.584;2022-12-07T08:14:07;17.20;40.40
62809;DHT22;48848;39.002;-94.584;2022-12-07T08:16:33;17.20;40.30
62809;DHT22;48848;39.002;-94.584;2022-12-07T08:18:59;17.20;40.30
62809;DHT22;48848;39.002;-94.584;2022-12-07T08:21:26;17.20;40.30
62809;DHT22;48848;39.002;-94.584;2022-12-07T08:23:52;17.20;40.30
62809;DHT22;48848;39.002;-94.584;2022-12-07T08:26:18;17.20;40.30
62809;DHT22;48848;39.002;-94.584;2022-12-07T08:28:44;17.20;40.20
62809;DHT22;48848;39.002;-94.584;2022-12-07T08:31:15;17.10;40.20
62809;DHT22;48848;39.002;-94.584;2022-12-07T08:33:42;17.10;40.10
62809;DHT22;48848;39.002;-94.584;2022-12-07T08:36:10;17.10;40.20
62809;DHT22;48848;39.002;-94.584;2022-12-07T08:38:38;17.10;40.20
62809;DHT22;48848;39.002;-94.584;2022-12-07T08:41:05;17.00;40.10
62809;DHT22;48848;39.002;-94.584;2022-12-07T08:43:32;17.00;40.10
62809;DHT22;48848;39.002;-94.584;2022-12-07T08:46:15;17.10;40.10
62809;DHT22;48848;39.002;-94.584;2022-12-07T08:51:33;17.00;40.10
62809;DHT22;48848;39.002;-94.584;2022-12-07T08:54:02;17.00;40.10
62809;DHT22;48848;39.002;-94.584;2022-12-07T08:56:29;17.00;40.20
62809;DHT22;48848;39.002;-94.584;2022-12-07T08:58:55;16.90;40.20
62809;DHT22;48848;39.002;-94.584;2022-12-07T09:01:23;16.90;40.10
62809;DHT22;48848;39.002;-94.584;2022-12-07T09:03:49;16.90;40.10
62809;DHT22;48848;39.002;-94.584;2022-12-07T09:06:15;16.90;40.10
62809;DHT22;48848;39.002;-94.584;2022-12-07T09:08:45;16.90;40.10
62809;DHT22;48848;39.002;-94.584;2022-12-07T09:11:12;16.80;40.10
62809;DHT22;48848;39.002;-94.584;2022-12-07T09:13:38;16.90;40.00
62809;DHT22;48848;39.002;-94.584;2022-12-07T09:16:05;16.90;40.00
62809;DHT22;48848;39.002;-94.584;2022-12-07T09:18:31;16.80;40.00
62809;DHT22;48848;39.002;-94.584;2022-12-07T09:20:57;16.80;40.00
62809;DHT22;48848;39.002;-94.584;2022-12-07T09:23:23;16.80;40.00
62809;DHT22;48848;39.002;-94.584;2022-12-07T09:25:50;16.80;39.80
62809;DHT22;48848;39.002;-94.584;2022-12-07T09:28:16;16.80;39.90
62809;DHT22;48848;39.002;-94.584;2022-12-07T09:30:46;16.80;39.80
62809;DHT22;48848;39.002;-94.584;2022-12-07T09:33:13;16.80;39.80
62809;DHT22;48848;39.002;-94.584;2022-12-07T09:35:45;16.80;39.70
62809;DHT22;48848;39.002;-94.584;2022-12-07T09:38:11;16.80;39.70
62809;DHT22;48848;39.002;-94.584;2022-12-07T09:40:38;16.80;39.70
62809;DHT22;48848;39.002;-94.584;2022-12-07T09:43:05;16.80;39.70
62809;DHT22;48848;39.002;-94.584;2022-12-07T09:45:35;16.90;39.70
62809;DHT22;48848;39.002;-94.584;2022-12-07T09:48:03;16.80;39.60
62809;DHT22;48848;39.002;-94.584;2022-12-07T09:50:30;16.80;39.60
62809;DHT22;48848;39.002;-94.584;2022-12-07T09:53:09;16.90;39.50
62809;DHT22;48848;39.002;-94.584;2022-12-07T09:55:38;16.90;39.30
62809;DHT22;48848;39.002;-94.584;2022-12-07T09:58:08;16.90;39.20
62809;DHT22;48848;39.002;-94.584;2022-12-07T10:00:35;17.00;39.20
62809;DHT22;48848;39.002;-94.584;2022-12-07T10:03:02;17.00;39.10
62809;DHT22;48848;39.002;-94.584;2022-12-07T10:05:38;17.00;39.10
62809;DHT22;48848;39.002;-94.584;2022-12-07T10:08:09;17.00;39.10
62809;DHT22;48848;39.002;-94.584;2022-12-07T10:10:36;17.00;39.00
62809;DHT22;48848;39.002;-94.584;2022-12-07T10:13:05;17.00;39.10
62809;DHT22;48848;39.002;-94.584;2022-12-07T10:15:57;17.00;39.00
62809;DHT22;48848;39.002;-94.584;2022-12-07T10:18:39;17.00;39.00
62809;DHT22;48848;39.002;-94.584;2022-12-07T10:21:15;16.90;39.10
62809;DHT22;48848;39.002;-94.584;2022-12-07T10:26:35;16.90;38.90
62809;DHT22;48848;39.002;-94.584;2022-12-07T10:29:28;16.90;39.00
62809;DHT22;48848;39.002;-94.584;2022-12-07T10:32:03;16.90;39.00
62809;DHT22;48848;39.002;-94.584;2022-12-07T10:34:34;16.90;39.00
62809;DHT22;48848;39.002;-94.584;2022-12-07T10:39:48;16.80;39.00
62809;DHT22;48848;39.002;-94.584;2022-12-07T10:42:29;16.90;39.10
62809;DHT22;48848;39.002;-94.584;2022-12-07T10:45:09;16.80;39.00
62809;DHT22;48848;39.002;-94.584;2022-12-07T10:53:26;16.80;39.00
62809;DHT22;48848;39.002;-94.584;2022-12-07T11:02:20;16.80;39.00
62809;DHT22;48848;39.002;-94.584;2022-12-07T11:08:00;16.80;39.60
62809;DHT22;48848;39.002;-94.584;2022-12-07T11:10:41;17.00;39.80
62809;DHT22;48848;39.002;-94.584;2022-12-07T11:16:14;17.30;39.40
62809;DHT22;48848;39.002;-94.584;2022-12-07T11:24:16;17.00;40.10
62809;DHT22;48848;39.002;-94.584;2022-12-07T11:35:31;16.80;40.30
62809;DHT22;48848;39.002;-94.584;2022-12-07T11:38:07;16.70;40.20
62809;DHT22;48848;39.002;-94.584;2022-12-07T11:40:36;16.70;40.30
62809;DHT22;48848;39.002;-94.584;2022-12-07T11:43:20;16.60;40.30
62809;DHT22;48848;39.002;-94.584;2022-12-07T11:46:11;16.70;40.40
62809;DHT22;48848;39.002;-94.584;2022-12-07T11:48:49;16.80;40.70
62809;DHT22;48848;39.002;-94.584;2022-12-07T11:51:18;17.10;40.50
62809;DHT22;48848;39.002;-94.584;2022-12-07T11:53:56;17.40;40.30
62809;DHT22;48848;39.002;-94.584;2022-12-07T11:56:26;17.70;40.10
62809;DHT22;48848;39.002;-94.584;2022-12-07T11:59:15;18.00;39.90
62809;DHT22;48848;39.002;-94.584;2022-12-07T12:02:13;18.20;39.60
62809;DHT22;48848;39.002;-94.584;2022-12-07T12:07:24;18.80;39.20
62809;DHT22;48848;39.002;-94.584;2022-12-07T12:10:16;18.90;38.70
62809;DHT22;48848;39.002;-94.584;2022-12-07T12:15:58;18.40;39.10
62809;DHT22;48848;39.002;-94.584;2022-12-07T12:19:04;18.30;39.30
62809;DHT22;48848;39.002;-94.584;2022-12-07T12:21:37;18.10;39.40
62809;DHT22;48848;39.002;-94.584;2022-12-07T12:24:09;18.00;39.70
62809;DHT22;48848;39.002;-94.584;2022-12-07T12:26:37;18.10;40.00
62809;DHT22;48848;39.002;-94.584;2022-12-07T12:29:15;18.40;39.90
62809;DHT22;48848;39.002;-94.584;2022-12-07T12:32:04;18.60;39.60
62809;DHT22;48848;39.002;-94.584;2022-12-07T12:34:32;18.80;39.20
62809;DHT22;48848;39.002;-94.584;2022-12-07T12:36:58;18.70;39.20
62809;DHT22;48848;39.002;-94.584;2022-12-07T12:39:25;18.60;39.50
62809;DHT22;48848;39.002;-94.584;2022-12-07T12:41:53;18.50;39.60
62809;DHT22;48848;39.002;-94.584;2022-12-07T12:54:28;18.00;40.00
62809;DHT22;48848;39.002;-94.584;2022-12-07T12:57:17;18.00;42.90
62809;DHT22;48848;39.002;-94.584;2022-12-07T13:15:36;18.40;40.70
62809;DHT22;48848;39.002;-94.584;2022-12-07T13:26:31;18.10;41.00
62809;DHT22;48848;39.002;-94.584;2022-12-07T13:29:11;18.00;41.10
62809;DHT22;48848;39.002;-94.584;2022-12-07T13:34:28;18.00;41.30
62809;DHT22;48848;39.002;-94.584;2022-12-07T13:36:55;18.20;41.20
62809;DHT22;48848;39.002;-94.584;2022-12-07T13:39:24;18.50;40.80
62809;DHT22;48848;39.002;-94.584;2022-12-07T13:41:58;18.70;40.40
62809;DHT22;48848;39.002;-94.584;2022-12-07T13:44:27;18.70;40.00
62809;DHT22;48848;39.002;-94.584;2022-12-07T13:47:07;18.60;40.90
62809;DHT22;48848;39.002;-94.584;2022-12-07T13:49:46;18.90;41.20
62809;DHT22;48848;39.002;-94.584;2022-12-07T13:52:19;18.60;40.30
62809;DHT22;48848;39.002;-94.584;2022-12-07T13:57:22;18.40;40.50
62809;DHT22;48848;39.002;-94.584;2022-12-07T13:59:50;18.30;40.70
62809;DHT22;48848;39.002;-94.584;2022-12-07T14:02:25;18.40;43.30
62809;DHT22;48848;39.002;-94.584;2022-12-07T14:05:05;18.40;40.90
62809;DHT22;48848;39.002;-94.584;2022-12-07T14:07:34;18.30;40.90
62809;DHT22;48848;39.002;-94.584;2022-12-07T14:10:05;18.20;41.00
62809;DHT22;48848;39.002;-94.584;2022-12-07T14:12:35;18.10;40.90
62809;DHT22;48848;39.002;-94.584;2022-12-07T14:15:03;18.10;41.10
62809;DHT22;48848;39.002;-94.584;2022-12-07T14:17:29;18.20;41.30
62809;DHT22;48848;39.002;-94.584;2022-12-07T14:20:01;18.40;41.10
62809;DHT22;48848;39.002;-94.584;2022-12-07T14:22:29;18.60;40.70
62809;DHT22;48848;39.002;-94.584;2022-12-07T14:27:33;18.70;40.10
62809;DHT22;48848;39.002;-94.584;2022-12-07T14:30:01;18.60;40.40
62809;DHT22;48848;39.002;-94.584;2022-12-07T14:32:29;18.50;40.40
62809;DHT22;48848;39.002;-94.584;2022-12-07T14:35:01;18.40;40.50
62809;DHT22;48848;39.002;-94.584;2022-12-07T14:37:29;18.40;40.60
62809;DHT22;48848;39.002;-94.584;2022-12-07T14:39:56;18.30;40.70
62809;DHT22;48848;39.002;-94.584;2022-12-07T14:42:26;18.30;40.80
62809;DHT22;48848;39.002;-94.584;2022-12-07T14:44:53;18.20;40.90
62809;DHT22;48848;39.002;-94.584;2022-12-07T14:47:19;18.20;41.10
62809;DHT22;48848;39.002;-94.584;2022-12-07T14:49:45;18.20;41.10
62809;DHT22;48848;39.002;-94.584;2022-12-07T14:52:19;18.10;41.10
62809;DHT22;48848;39.002;-94.584;2022-12-07T14:54:46;18.00;41.10
62809;DHT22;48848;39.002;-94.584;2022-12-07T14:57:13;18.00;41.20
62809;DHT22;48848;39.002;-94.584;2022-12-07T14:59:39;18.20;41.30
62809;DHT22;48848;39.002;-94.584;2022-12-07T15:02:06;18.40;40.90
62809;DHT22;48848;39.002;-94.584;2022-12-07T15:04:33;18.70;40.50
62809;DHT22;48848;39.002;-94.584;2022-12-07T15:07:01;18.70;40.20
62809;DHT22;48848;39.002;-94.584;2022-12-07T15:09:28;18.60;40.20
62809;DHT22;48848;39.002;-94.584;2022-12-07T15:11:54;18.60;40.30
62809;DHT22;48848;39.002;-94.584;2022-12-07T15:14:20;18.50;40.40
62809;DHT22;48848;39.002;-94.584;2022-12-07T15:16:46;18.50;40.40
62809;DHT22;48848;39.002;-94.584;2022-12-07T15:19:20;18.40;40.50
62809;DHT22;48848;39.002;-94.584;2022-12-07T15:21:49;18.30;40.60
62809;DHT22;48848;39.002;-94.584;2022-12-07T15:24:15;18.30;40.50
62809;DHT22;48848;39.002;-94.584;2022-12-07T15:26:42;18.30;40.60
62809;DHT22;48848;39.002;-94.584;2022-12-07T15:29:09;18.20;40.60
62809;DHT22;48848;39.002;-94.584;2022-12-07T15:31:36;18.20;40.60
62809;DHT22;48848;39.002;-94.584;2022-12-07T15:34:03;18.20;40.70
62809;DHT22;48848;39.002;-94.584;2022-12-07T15:36:31;18.20;40.80
62809;DHT22;48848;39.002;-94.584;2022-12-07T15:38:57;18.20;40.90
62809;DHT22;48848;39.002;-94.584;2022-12-07T15:41:24;18.20;40.90
62809;DHT22;48848;39.002;-94.584;2022-12-07T15:43:51;18.20;40.90
62809;DHT22;48848;39.002;-94.584;2022-12-07T15:46:37;18.20;40.90
62809;DHT22;48848;39.002;-94.584;2022-12-07T15:49:07;18.10;40.90
62809;DHT22;48848;39.002;-94.584;2022-12-07T15:51:34;18.10;40.80
62809;DHT22;48848;39.002;-94.584;2022-12-07T15:54:01;18.20;41.80
62809;DHT22;48848;39.002;-94.584;2022-12-07T15:56:27;18.50;42.50
62809;DHT22;48848;39.002;-94.584;2022-12-07T15:58:53;18.30;40.80
62809;DHT22;48848;39.002;-94.584;2022-12-07T16:01:20;18.20;40.70
62809;DHT22;48848;39.002;-94.584;2022-12-07T16:03:46;18.20;40.80
62809;DHT22;48848;39.002;-94.584;2022-12-07T16:06:16;18.10;40.70
62809;DHT22;48848;39.002;-94.584;2022-12-07T16:08:46;18.10;40.80
62809;DHT22;48848;39.002;-94.584;2022-12-07T16:11:13;18.10;40.70
62809;DHT22;48848;39.002;-94.584;2022-12-07T16:13:39;18.10;40.40
62809;DHT22;48848;39.002;-94.584;2022-12-07T16:16:09;18.60;41.20
62809;DHT22;48848;39.002;-94.584;2022-12-07T16:18:35;18.70;41.20
62809;DHT22;48848;39.002;-94.584;2022-12-07T16:21:02;18.60;40.50
62809;DHT22;48848;39.002;-94.584;2022-12-07T16:23:29;18.40;40.30
62809;DHT22;48848;39.002;-94.584;2022-12-07T16:26:02;18.30;40.50
62809;DHT22;48848;39.002;-94.584;2022-12-07T16:28:29;18.30;40.70
62809;DHT22;48848;39.002;-94.584;2022-12-07T16:31:07;18.20;40.70
62809;DHT22;48848;39.002;-94.584;2022-12-07T16:33:37;18.20;40.70
62809;DHT22;48848;39.002;-94.584;2022-12-07T16:36:05;18.20;40.60
62809;DHT22;48848;39.002;-94.584;2022-12-07T16:38:32;18.20;40.60
62809;DHT22;48848;39.002;-94.584;2022-12-07T16:40:58;18.20;40.70
62809;DHT22;48848;39.002;-94.584;2022-12-07T16:43:24;18.30;40.60
62809;DHT22;48848;39.002;-94.584;2022-12-07T16:45:50;18.20;40.60
62809;DHT22;48848;39.002;-94.584;2022-12-07T16:48:17;18.20;40.50
62809;DHT22;48848;39.002;-94.584;2022-12-07T16:50:44;18.10;40.40
62809;DHT22;48848;39.002;-94.584;2022-12-07T16:53:11;18.10;40.40
62809;DHT22;48848;39.002;-94.584;2022-12-07T16:55:42;18.10;40.40
62809;DHT22;48848;39.002;-94.584;2022-12-07T16:58:10;18.10;40.50
62809;DHT22;48848;39.002;-94.584;2022-12-07T17:00:38;18.10;40.40
62809;DHT22;48848;39.002;-94.584;2022-12-07T17:03:04;18.10;40.80
62809;DHT22;48848;39.002;-94.584;2022-12-07T17:05:31;18.20;41.10
62809;DHT22;48848;39.002;-94.584;2022-12-07T17:07:58;18.30;40.90
62809;DHT22;48848;39.002;-94.584;2022-12-07T17:10:25;18.30;41.10
62809;DHT22;48848;39.002;-94.584;2022-12-07T17:12:51;18.20;40.70
62809;DHT22;48848;39.002;-94.584;2022-12-07T17:15:18;18.20;41.00
62809;DHT22;48848;39.002;-94.584;2022-12-07T17:17:55;18.20;40.70
62809;DHT22;48848;39.002;-94.584;2022-12-07T17:20:22;18.20;40.60
62809;DHT22;48848;39.002;-94.584;2022-12-07T17:22:49;18.20;40.60